sensor_id;sensor_type;location;lat;lon;timestamp;temperature;humidity
28175;SHT30;59417;44.788;10.334;2022-12-24T00:02:26;9.47;87.24
28175;SHT30;59417;44.788;10.334;2022-12-24T00:04:51;9.57;87.05
28175;SHT30;59417;44.788;10.334;2022-12-24T00:07:17;9.68;86.16
28175;SHT30;59417;44.788;10.334;2022-12-24T00:09:43;9.51;87.12
28175;SHT30;59417;44.788;10.334;2022-12-24T00:12:10;9.42;87.60
28175;SHT30;59417;44.788;10.334;2022-12-24T00:14:35;9.41;87.55
28175;SHT30;59417;44.788;10.334;2022-12-24T00:17:02;9.44;87.63
28175;SHT30;59417;44.788;10.334;2022-12-24T00:19:27;9.45;87.55
28175;SHT30;59417;44.788;10.334;2022-12-24T00:21:53;9.47;87.51
28175;SHT30;59417;44.788;10.334;2022-12-24T00:24:20;9.44;87.61
28175;SHT30;59417;44.788;10.334;2022-12-24T00:26:45;9.48;87.29
28175;SHT30;59417;44.788;10.334;2022-12-24T00:29:11;9.48;87.32
28175;SHT30;59417;44.788;10.334;2022-12-24T00:31:37;9.42;87.40
28175;SHT30;59417;44.788;10.334;2022-12-24T00:34:03;9.42;87.50
28175;SHT30;59417;44.788;10.334;2022-12-24T00:36:29;9.51;87.40
28175;SHT30;59417;44.788;10.334;2022-12-24T00:38:55;9.57;86.89
28175;SHT30;59417;44.788;10.334;2022-12-24T00:41:21;9.49;87.25
28175;SHT30;59417;44.788;10.334;2022-12-24T00:43:55;9.48;87.12
28175;SHT30;59417;44.788;10.334;2022-12-24T00:46:22;9.70;86.02
28175;SHT30;59417;44.788;10.334;2022-12-24T00:48:48;9.52;86.81
28175;SHT30;59417;44.788;10.334;2022-12-24T00:51:14;9.61;86.59
28175;SHT30;59417;44.788;10.334;2022-12-24T00:53:40;9.66;86.37
28175;SHT30;59417;44.788;10.334;2022-12-24T00:56:07;9.55;86.54
28175;SHT30;59417;44.788;10.334;2022-12-24T00:58:33;9.42;87.49
28175;SHT30;59417;44.788;10.334;2022-12-24T01:00:59;9.44;87.82
28175;SHT30;59417;44.788;10.334;2022-12-24T01:03:25;9.55;87.19
28175;SHT30;59417;44.788;10.334;2022-12-24T01:06:05;9.54;87.24
28175;SHT30;59417;44.788;10.334;2022-12-24T01:08:32;9.49;87.32
28175;SHT30;59417;44.788;10.334;2022-12-24T01:10:58;9.54;87.19
28175;SHT30;59417;44.788;10.334;2022-12-24T01:13:24;9.54;86.89
28175;SHT30;59417;44.788;10.334;2022-12-24T01:15:50;9.52;87.13
28175;SHT30;59417;44.788;10.334;2022-12-24T01:18:16;9.51;87.19
28175;SHT30;59417;44.788;10.334;2022-12-24T01:20:42;9.57;86.83
28175;SHT30;59417;44.788;10.334;2022-12-24T01:23:08;9.48;87.28
28175;SHT30;59417;44.788;10.334;2022-12-24T01:25:37;9.47;87.50
28175;SHT30;59417;44.788;10.334;2022-12-24T01:28:04;9.47;87.45
28175;SHT30;59417;44.788;10.334;2022-12-24T01:30:30;9.49;87.39
28175;SHT30;59417;44.788;10.334;2022-12-24T01:32:57;9.52;87.27
28175;SHT30;59417;44.788;10.334;2022-12-24T01:35:23;9.55;86.98
28175;SHT30;59417;44.788;10.334;2022-12-24T01:37:49;9.52;87.23
28175;SHT30;59417;44.788;10.334;2022-12-24T01:40:16;9.59;87.13
28175;SHT30;59417;44.788;10.334;2022-12-24T01:43:01;9.59;86.88
28175;SHT30;59417;44.788;10.334;2022-12-24T01:45:49;9.62;86.70
28175;SHT30;59417;44.788;10.334;2022-12-24T01:48:48;9.65;86.36
28175;SHT30;59417;44.788;10.334;2022-12-24T01:51:42;9.58;86.77
28175;SHT30;59417;44.788;10.334;2022-12-24T01:54:25;9.55;87.03
28175;SHT30;59417;44.788;10.334;2022-12-24T01:56:59;9.59;86.97
28175;SHT30;59417;44.788;10.334;2022-12-24T01:59:25;9.69;86.37
28175;SHT30;59417;44.788;10.334;2022-12-24T02:01:52;9.59;86.62
28175;SHT30;59417;44.788;10.334;2022-12-24T02:04:28;9.55;87.02
28175;SHT30;59417;44.788;10.334;2022-12-24T02:06:55;9.62;87.07
28175;SHT30;59417;44.788;10.334;2022-12-24T02:09:21;9.62;86.79
28175;SHT30;59417;44.788;10.334;2022-12-24T02:11:47;9.61;86.90
28175;SHT30;59417;44.788;10.334;2022-12-24T02:14:14;9.63;86.78
28175;SHT30;59417;44.788;10.334;2022-12-24T02:33:39;9.55;87.17
28175;SHT30;59417;44.788;10.334;2022-12-24T02:36:17;9.51;87.24
28175;SHT30;59417;44.788;10.334;2022-12-24T02:38:50;9.51;87.18
28175;SHT30;59417;44.788;10.334;2022-12-24T02:41:21;9.55;87.06
28175;SHT30;59417;44.788;10.334;2022-12-24T02:43:50;9.66;86.82
28175;SHT30;59417;44.788;10.334;2022-12-24T02:46:21;9.58;87.13
28175;SHT30;59417;44.788;10.334;2022-12-24T02:48:50;9.52;87.35
28175;SHT30;59417;44.788;10.334;2022-12-24T02:51:22;9.57;87.39
28175;SHT30;59417;44.788;10.334;2022-12-24T02:53:49;9.59;87.28
28175;SHT30;59417;44.788;10.334;2022-12-24T02:56:40;9.62;87.07
28175;SHT30;59417;44.788;10.334;2022-12-24T03:01:49;9.76;86.46
28175;SHT30;59417;44.788;10.334;2022-12-24T03:06:58;9.72;86.50
28175;SHT30;59417;44.788;10.334;2022-12-24T03:09:37;9.72;86.50
28175;SHT30;59417;44.788;10.334;2022-12-24T03:12:10;9.63;86.87
28175;SHT30;59417;44.788;10.334;2022-12-24T03:14:38;9.75;86.55
28175;SHT30;59417;44.788;10.334;2022-12-24T03:17:05;9.73;86.32
28175;SHT30;59417;44.788;10.334;2022-12-24T03:19:32;9.73;86.33
28175;SHT30;59417;44.788;10.334;2022-12-24T03:22:01;9.63;86.76
28175;SHT30;59417;44.788;10.334;2022-12-24T03:24:28;9.63;86.82
28175;SHT30;59417;44.788;10.334;2022-12-24T03:26:55;9.54;86.95
28175;SHT30;59417;44.788;10.334;2022-12-24T03:29:21;9.57;87.22
28175;SHT30;59417;44.788;10.334;2022-12-24T03:31:50;9.59;87.03
28175;SHT30;59417;44.788;10.334;2022-12-24T03:34:17;9.57;87.24
28175;SHT30;59417;44.788;10.334;2022-12-24T03:36:43;9.55;87.54
28175;SHT30;59417;44.788;10.334;2022-12-24T03:39:09;9.65;87.04
28175;SHT30;59417;44.788;10.334;2022-12-24T03:41:36;9.68;86.80
28175;SHT30;59417;44.788;10.334;2022-12-24T03:44:03;9.66;86.46
28175;SHT30;59417;44.788;10.334;2022-12-24T03:46:29;9.59;86.89
28175;SHT30;59417;44.788;10.334;2022-12-24T03:48:55;9.48;86.90
28175;SHT30;59417;44.788;10.334;2022-12-24T03:51:23;9.51;87.13
28175;SHT30;59417;44.788;10.334;2022-12-24T03:53:53;9.41;87.40
28175;SHT30;59417;44.788;10.334;2022-12-24T03:56:19;9.39;87.59
28175;SHT30;59417;44.788;10.334;2022-12-24T03:58:46;9.39;87.93
28175;SHT30;59417;44.788;10.334;2022-12-24T04:01:12;9.48;87.82
28175;SHT30;59417;44.788;10.334;2022-12-24T04:03:38;9.49;87.33
28175;SHT30;59417;44.788;10.334;2022-12-24T04:06:07;9.51;87.38
28175;SHT30;59417;44.788;10.334;2022-12-24T04:08:34;9.55;87.04
28175;SHT30;59417;44.788;10.334;2022-12-24T04:11:00;9.57;87.12
28175;SHT30;59417;44.788;10.334;2022-12-24T04:13:26;9.54;87.12
28175;SHT30;59417;44.788;10.334;2022-12-24T04:16:07;9.49;87.46
28175;SHT30;59417;44.788;10.334;2022-12-24T04:18:33;9.44;87.98
28175;SHT30;59417;44.788;10.334;2022-12-24T04:20:59;9.47;88.03
28175;SHT30;59417;44.788;10.334;2022-12-24T04:23:25;9.47;88.06
28175;SHT30;59417;44.788;10.334;2022-12-24T04:25:51;9.47;88.08
28175;SHT30;59417;44.788;10.334;2022-12-24T04:28:17;9.51;87.79
28175;SHT30;59417;44.788;10.334;2022-12-24T04:30:43;9.55;87.64
28175;SHT30;59417;44.788;10.334;2022-12-24T04:33:09;9.66;87.09
28175;SHT30;59417;44.788;10.334;2022-12-24T04:35:39;9.65;86.90
28175;SHT30;59417;44.788;10.334;2022-12-24T04:38:06;9.55;87.68
28175;SHT30;59417;44.788;10.334;2022-12-24T04:40:33;9.63;87.11
28175;SHT30;59417;44.788;10.334;2022-12-24T04:42:59;9.57;87.50
28175;SHT30;59417;44.788;10.334;2022-12-24T04:45:25;9.58;87.42
28175;SHT30;59417;44.788;10.334;2022-12-24T04:47:50;9.55;87.54
28175;SHT30;59417;44.788;10.334;2022-12-24T04:50:16;9.62;87.33
28175;SHT30;59417;44.788;10.334;2022-12-24T04:52:42;9.62;87.14
28175;SHT30;59417;44.788;10.334;2022-12-24T04:55:08;9.55;87.38
28175;SHT30;59417;44.788;10.334;2022-12-24T04:57:34;9.58;87.35
28175;SHT30;59417;44.788;10.334;2022-12-24T05:00:04;9.55;87.43
28175;SHT30;59417;44.788;10.334;2022-12-24T05:02:30;9.48;87.70
28175;SHT30;59417;44.788;10.334;2022-12-24T05:04:56;9.49;87.82
28175;SHT30;59417;44.788;10.334;2022-12-24T05:07:22;9.57;87.53
28175;SHT30;59417;44.788;10.334;2022-12-24T05:09:48;9.57;87.39
28175;SHT30;59417;44.788;10.334;2022-12-24T05:12:14;9.65;87.19
28175;SHT30;59417;44.788;10.334;2022-12-24T05:14:40;9.59;87.33
28175;SHT30;59417;44.788;10.334;2022-12-24T05:17:06;9.70;86.87
28175;SHT30;59417;44.788;10.334;2022-12-24T05:19:32;9.61;87.35
28175;SHT30;59417;44.788;10.334;2022-12-24T05:21:58;9.58;87.62
28175;SHT30;59417;44.788;10.334;2022-12-24T05:24:42;9.58;87.73
28175;SHT30;59417;44.788;10.334;2022-12-24T05:27:26;9.57;87.84
28175;SHT30;59417;44.788;10.334;2022-12-24T05:29:52;9.61;87.60
28175;SHT30;59417;44.788;10.334;2022-12-24T05:32:18;9.59;87.57
28175;SHT30;59417;44.788;10.334;2022-12-24T05:34:44;9.63;87.55
28175;SHT30;59417;44.788;10.334;2022-12-24T05:37:10;9.78;86.82
28175;SHT30;59417;44.788;10.334;2022-12-24T05:39:36;9.69;87.18
28175;SHT30;59417;44.788;10.334;2022-12-24T05:42:06;9.73;87.18
28175;SHT30;59417;44.788;10.334;2022-12-24T05:44:33;9.72;86.95
28175;SHT30;59417;44.788;10.334;2022-12-24T05:47:02;9.55;87.73
28175;SHT30;59417;44.788;10.334;2022-12-24T05:49:28;9.54;87.93
28175;SHT30;59417;44.788;10.334;2022-12-24T05:51:55;9.65;87.48
28175;SHT30;59417;44.788;10.334;2022-12-24T05:54:21;9.54;87.78
28175;SHT30;59417;44.788;10.334;2022-12-24T05:56:47;9.52;88.04
28175;SHT30;59417;44.788;10.334;2022-12-24T05:59:13;9.62;87.35
28175;SHT30;59417;44.788;10.334;2022-12-24T06:01:39;9.48;87.85
28175;SHT30;59417;44.788;10.334;2022-12-24T06:04:04;9.42;88.55
28175;SHT30;59417;44.788;10.334;2022-12-24T06:06:30;9.42;88.59
28175;SHT30;59417;44.788;10.334;2022-12-24T06:08:56;9.47;88.55
28175;SHT30;59417;44.788;10.334;2022-12-24T06:11:26;9.45;88.78
28175;SHT30;59417;44.788;10.334;2022-12-24T06:13:53;9.55;88.22
28175;SHT30;59417;44.788;10.334;2022-12-24T06:16:20;9.65;87.35
28175;SHT30;59417;44.788;10.334;2022-12-24T06:18:46;9.66;87.06
28175;SHT30;59417;44.788;10.334;2022-12-24T06:21:13;9.51;87.81
28175;SHT30;59417;44.788;10.334;2022-12-24T06:23:41;9.54;87.72
28175;SHT30;59417;44.788;10.334;2022-12-24T06:26:10;9.45;88.30
28175;SHT30;59417;44.788;10.334;2022-12-24T06:28:36;9.44;88.35
28175;SHT30;59417;44.788;10.334;2022-12-24T06:31:04;9.41;88.28
28175;SHT30;59417;44.788;10.334;2022-12-24T06:33:32;9.44;88.32
28175;SHT30;59417;44.788;10.334;2022-12-24T06:35:59;9.44;88.40
28175;SHT30;59417;44.788;10.334;2022-12-24T06:38:24;9.70;87.05
28175;SHT30;59417;44.788;10.334;2022-12-24T06:40:50;9.62;87.31
28175;SHT30;59417;44.788;10.334;2022-12-24T06:43:17;9.59;87.57
28175;SHT30;59417;44.788;10.334;2022-12-24T06:45:45;9.44;88.55
28175;SHT30;59417;44.788;10.334;2022-12-24T06:48:11;9.55;88.16
28175;SHT30;59417;44.788;10.334;2022-12-24T06:50:38;9.63;87.30
28175;SHT30;59417;44.788;10.334;2022-12-24T06:53:04;9.49;87.94
28175;SHT30;59417;44.788;10.334;2022-12-24T06:55:40;9.48;88.48
28175;SHT30;59417;44.788;10.334;2022-12-24T06:58:26;9.49;88.23
28175;SHT30;59417;44.788;10.334;2022-12-24T07:00:52;9.49;88.24
28175;SHT30;59417;44.788;10.334;2022-12-24T07:03:18;9.59;87.97
28175;SHT30;59417;44.788;10.334;2022-12-24T07:05:43;9.52;88.11
28175;SHT30;59417;44.788;10.334;2022-12-24T07:08:09;9.54;88.27
28175;SHT30;59417;44.788;10.334;2022-12-24T07:10:35;9.55;88.33
28175;SHT30;59417;44.788;10.334;2022-12-24T07:13:01;9.55;88.31
28175;SHT30;59417;44.788;10.334;2022-12-24T07:15:28;9.65;87.84
28175;SHT30;59417;44.788;10.334;2022-12-24T07:17:53;9.70;87.47
28175;SHT30;59417;44.788;10.334;2022-12-24T07:20:20;9.76;87.08
28175;SHT30;59417;44.788;10.334;2022-12-24T07:22:46;9.73;87.51
28175;SHT30;59417;44.788;10.334;2022-12-24T07:25:12;9.72;87.62
28175;SHT30;59417;44.788;10.334;2022-12-24T07:27:38;9.68;87.73
28175;SHT30;59417;44.788;10.334;2022-12-24T07:30:04;9.62;87.97
28175;SHT30;59417;44.788;10.334;2022-12-24T07:32:34;9.75;87.64
28175;SHT30;59417;44.788;10.334;2022-12-24T07:35:00;9.73;87.65
28175;SHT30;59417;44.788;10.334;2022-12-24T07:37:36;9.79;87.42
28175;SHT30;59417;44.788;10.334;2022-12-24T07:40:06;9.78;87.51
28175;SHT30;59417;44.788;10.334;2022-12-24T07:42:34;9.86;87.34
28175;SHT30;59417;44.788;10.334;2022-12-24T07:45:00;9.83;87.34
28175;SHT30;59417;44.788;10.334;2022-12-24T07:47:28;9.79;87.52
28175;SHT30;59417;44.788;10.334;2022-12-24T07:49:54;9.82;87.41
28175;SHT30;59417;44.788;10.334;2022-12-24T07:52:20;9.79;87.50
28175;SHT30;59417;44.788;10.334;2022-12-24T07:54:45;9.78;87.42
28175;SHT30;59417;44.788;10.334;2022-12-24T07:57:11;9.81;87.65
28175;SHT30;59417;44.788;10.334;2022-12-24T07:59:37;9.79;87.51
28175;SHT30;59417;44.788;10.334;2022-12-24T08:02:22;9.85;87.40
28175;SHT30;59417;44.788;10.334;2022-12-24T08:05:01;9.85;87.20
28175;SHT30;59417;44.788;10.334;2022-12-24T08:07:27;9.88;87.25
28175;SHT30;59417;44.788;10.334;2022-12-24T08:09:57;9.86;87.28
28175;SHT30;59417;44.788;10.334;2022-12-24T08:12:23;9.96;86.94
28175;SHT30;59417;44.788;10.334;2022-12-24T08:14:52;9.85;87.21
28175;SHT30;59417;44.788;10.334;2022-12-24T08:17:18;9.86;87.38
28175;SHT30;59417;44.788;10.334;2022-12-24T08:19:46;9.90;87.28
28175;SHT30;59417;44.788;10.334;2022-12-24T08:22:12;9.81;87.63
28175;SHT30;59417;44.788;10.334;2022-12-24T08:24:39;9.81;87.68
28175;SHT30;59417;44.788;10.334;2022-12-24T08:27:05;9.76;87.77
28175;SHT30;59417;44.788;10.334;2022-12-24T08:29:31;9.81;87.96
28175;SHT30;59417;44.788;10.334;2022-12-24T08:31:57;9.88;88.05
28175;SHT30;59417;44.788;10.334;2022-12-24T08:34:23;9.90;87.76
28175;SHT30;59417;44.788;10.334;2022-12-24T08:36:52;10.03;87.12
28175;SHT30;59417;44.788;10.334;2022-12-24T08:39:17;10.05;86.97
28175;SHT30;59417;44.788;10.334;2022-12-24T08:41:56;9.93;87.45
28175;SHT30;59417;44.788;10.334;2022-12-24T08:44:31;9.99;87.53
28175;SHT30;59417;44.788;10.334;2022-12-24T08:46:57;9.98;87.69
28175;SHT30;59417;44.788;10.334;2022-12-24T08:49:26;9.99;88.10
28175;SHT30;59417;44.788;10.334;2022-12-24T08:51:52;10.06;87.82
28175;SHT30;59417;44.788;10.334;2022-12-24T08:54:18;10.09;87.87
28175;SHT30;59417;44.788;10.334;2022-12-24T08:56:44;10.10;87.78
28175;SHT30;59417;44.788;10.334;2022-12-24T08:59:13;10.13;87.71
28175;SHT30;59417;44.788;10.334;2022-12-24T09:01:39;10.13;87.73
28175;SHT30;59417;44.788;10.334;2022-12-24T09:04:06;10.21;87.24
28175;SHT30;59417;44.788;10.334;2022-12-24T09:06:31;10.19;87.33
28175;SHT30;59417;44.788;10.334;2022-12-24T09:08:58;10.21;87.11
28175;SHT30;59417;44.788;10.334;2022-12-24T09:11:24;10.20;86.90
28175;SHT30;59417;44.788;10.334;2022-12-24T09:14:34;10.16;86.95
28175;SHT30;59417;44.788;10.334;2022-12-24T09:17:05;10.33;85.81
28175;SHT30;59417;44.788;10.334;2022-12-24T09:19:32;10.19;86.37
28175;SHT30;59417;44.788;10.334;2022-12-24T09:21:59;10.17;86.63
28175;SHT30;59417;44.788;10.334;2022-12-24T09:24:37;10.10;86.57
28175;SHT30;59417;44.788;10.334;2022-12-24T09:27:12;10.16;86.46
28175;SHT30;59417;44.788;10.334;2022-12-24T09:29:47;10.16;86.24
28175;SHT30;59417;44.788;10.334;2022-12-24T09:32:14;10.19;86.43
28175;SHT30;59417;44.788;10.334;2022-12-24T09:34:43;10.12;86.55
28175;SHT30;59417;44.788;10.334;2022-12-24T09:40:47;10.19;86.27
28175;SHT30;59417;44.788;10.334;2022-12-24T09:43:20;10.31;85.72
28175;SHT30;59417;44.788;10.334;2022-12-24T09:48:56;10.34;85.69
28175;SHT30;59417;44.788;10.334;2022-12-24T09:51:46;10.45;85.56
28175;SHT30;59417;44.788;10.334;2022-12-24T09:54:23;10.34;85.41
28175;SHT30;59417;44.788;10.334;2022-12-24T09:56:50;10.34;85.60
28175;SHT30;59417;44.788;10.334;2022-12-24T09:59:22;10.34;85.09
28175;SHT30;59417;44.788;10.334;2022-12-24T10:01:51;10.26;85.65
28175;SHT30;59417;44.788;10.334;2022-12-24T10:04:20;10.36;85.45
28175;SHT30;59417;44.788;10.334;2022-12-24T10:25:27;10.33;85.94
28175;SHT30;59417;44.788;10.334;2022-12-24T10:31:06;10.23;85.64
28175;SHT30;59417;44.788;10.334;2022-12-24T10:33:44;10.16;85.97
28175;SHT30;59417;44.788;10.334;2022-12-24T10:36:33;10.20;86.00
28175;SHT30;59417;44.788;10.334;2022-12-24T10:38:59;10.21;86.24
28175;SHT30;59417;44.788;10.334;2022-12-24T10:41:26;10.23;86.36
28175;SHT30;59417;44.788;10.334;2022-12-24T10:43:53;10.27;86.35
28175;SHT30;59417;44.788;10.334;2022-12-24T10:46:23;10.31;86.24
28175;SHT30;59417;44.788;10.334;2022-12-24T10:49:01;10.31;86.49
28175;SHT30;59417;44.788;10.334;2022-12-24T10:51:47;10.37;86.58
28175;SHT30;59417;44.788;10.334;2022-12-24T10:54:20;10.45;86.13
28175;SHT30;59417;44.788;10.334;2022-12-24T10:56:54;10.40;86.62
28175;SHT30;59417;44.788;10.334;2022-12-24T11:03:38;10.38;86.81
28175;SHT30;59417;44.788;10.334;2022-12-24T11:06:15;10.40;86.68
28175;SHT30;59417;44.788;10.334;2022-12-24T11:08:45;10.41;86.87
28175;SHT30;59417;44.788;10.334;2022-12-24T11:11:20;10.40;86.91
28175;SHT30;59417;44.788;10.334;2022-12-24T11:13:52;10.40;87.06
28175;SHT30;59417;44.788;10.334;2022-12-24T11:16:39;10.50;86.96
28175;SHT30;59417;44.788;10.334;2022-12-24T11:19:14;10.45;87.13
28175;SHT30;59417;44.788;10.334;2022-12-24T11:22:01;10.44;86.86
28175;SHT30;59417;44.788;10.334;2022-12-24T11:27:47;10.45;86.98
28175;SHT30;59417;44.788;10.334;2022-12-24T11:32:47;10.54;86.71
28175;SHT30;59417;44.788;10.334;2022-12-24T11:35:23;10.47;86.89
28175;SHT30;59417;44.788;10.334;2022-12-24T11:38:16;10.51;86.85
28175;SHT30;59417;44.788;10.334;2022-12-24T11:40:58;10.52;86.75
28175;SHT30;59417;44.788;10.334;2022-12-24T11:43:25;10.57;86.83
28175;SHT30;59417;44.788;10.334;2022-12-24T11:46:13;10.63;87.19
28175;SHT30;59417;44.788;10.334;2022-12-24T11:48:43;10.56;87.13
28175;SHT30;59417;44.788;10.334;2022-12-24T11:51:27;10.60;87.06
28175;SHT30;59417;44.788;10.334;2022-12-24T11:54:15;10.59;87.02
28175;SHT30;59417;44.788;10.334;2022-12-24T11:56:51;10.63;87.07
28175;SHT30;59417;44.788;10.334;2022-12-24T11:59:39;10.57;87.21
28175;SHT30;59417;44.788;10.334;2022-12-24T12:02:26;10.54;87.24
28175;SHT30;59417;44.788;10.334;2022-12-24T12:05:08;10.59;87.19
28175;SHT30;59417;44.788;10.334;2022-12-24T12:07:37;10.63;87.34
28175;SHT30;59417;44.788;10.334;2022-12-24T12:10:06;10.57;87.57
28175;SHT30;59417;44.788;10.334;2022-12-24T12:12:41;10.59;87.59
28175;SHT30;59417;44.788;10.334;2022-12-24T12:15:21;10.52;87.57
28175;SHT30;59417;44.788;10.334;2022-12-24T12:17:55;10.56;87.55
28175;SHT30;59417;44.788;10.334;2022-12-24T12:23:19;10.59;87.36
28175;SHT30;59417;44.788;10.334;2022-12-24T12:25:49;10.64;87.41
28175;SHT30;59417;44.788;10.334;2022-12-24T12:28:41;10.57;87.65
28175;SHT30;59417;44.788;10.334;2022-12-24T12:31:14;10.57;87.63
28175;SHT30;59417;44.788;10.334;2022-12-24T12:37:23;10.70;87.38
28175;SHT30;59417;44.788;10.334;2022-12-24T12:39:52;10.70;87.06
28175;SHT30;59417;44.788;10.334;2022-12-24T12:42:30;10.64;87.43
28175;SHT30;59417;44.788;10.334;2022-12-24T12:50:18;10.57;88.13
28175;SHT30;59417;44.788;10.334;2022-12-24T12:59:17;10.52;88.80
28175;SHT30;59417;44.788;10.334;2022-12-24T13:13:31;10.50;88.65
28175;SHT30;59417;44.788;10.334;2022-12-24T13:22:02;10.50;88.80
28175;SHT30;59417;44.788;10.334;2022-12-24T13:24:30;10.48;88.80
28175;SHT30;59417;44.788;10.334;2022-12-24T13:27:03;10.52;88.80
28175;SHT30;59417;44.788;10.334;2022-12-24T13:40:22;10.52;88.44
28175;SHT30;59417;44.788;10.334;2022-12-24T13:50:52;10.56;88.81
28175;SHT30;59417;44.788;10.334;2022-12-24T13:55:56;10.61;88.79
28175;SHT30;59417;44.788;10.334;2022-12-24T13:58:24;10.60;88.80
28175;SHT30;59417;44.788;10.334;2022-12-24T14:01:04;10.60;88.90
28175;SHT30;59417;44.788;10.334;2022-12-24T14:06:27;10.63;88.71
28175;SHT30;59417;44.788;10.334;2022-12-24T14:09:06;10.61;88.68
28175;SHT30;59417;44.788;10.334;2022-12-24T14:14:29;10.64;88.76
28175;SHT30;59417;44.788;10.334;2022-12-24T14:17:01;10.63;88.84
28175;SHT30;59417;44.788;10.334;2022-12-24T14:19:37;10.65;88.85
28175;SHT30;59417;44.788;10.334;2022-12-24T14:22:32;10.65;88.88
28175;SHT30;59417;44.788;10.334;2022-12-24T14:25:03;10.64;89.01
28175;SHT30;59417;44.788;10.334;2022-12-24T14:27:58;10.60;89.07
28175;SHT30;59417;44.788;10.334;2022-12-24T14:30:29;10.57;89.19
28175;SHT30;59417;44.788;10.334;2022-12-24T14:32:55;10.56;89.29
28175;SHT30;59417;44.788;10.334;2022-12-24T14:35:25;10.59;89.30
28175;SHT30;59417;44.788;10.334;2022-12-24T14:38:01;10.56;89.25
28175;SHT30;59417;44.788;10.334;2022-12-24T14:40:29;10.52;89.43
28175;SHT30;59417;44.788;10.334;2022-12-24T14:54:02;10.52;89.12
28175;SHT30;59417;44.788;10.334;2022-12-24T14:56:30;10.54;89.09
28175;SHT30;59417;44.788;10.334;2022-12-24T14:58:56;10.57;88.99
28175;SHT30;59417;44.788;10.334;2022-12-24T15:01:32;10.59;89.08
28175;SHT30;59417;44.788;10.334;2022-12-24T15:06:39;10.57;89.22
28175;SHT30;59417;44.788;10.334;2022-12-24T15:09:26;10.59;89.03
28175;SHT30;59417;44.788;10.334;2022-12-24T15:11:56;10.61;89.03
28175;SHT30;59417;44.788;10.334;2022-12-24T15:14:25;10.59;89.21
28175;SHT30;59417;44.788;10.334;2022-12-24T15:16:58;10.57;88.76
28175;SHT30;59417;44.788;10.334;2022-12-24T15:19:48;10.52;88.89
28175;SHT30;59417;44.788;10.334;2022-12-24T15:22:27;10.61;88.96
28175;SHT30;59417;44.788;10.334;2022-12-24T15:25:33;10.59;88.65
28175;SHT30;59417;44.788;10.334;2022-12-24T15:28:01;10.57;88.84
28175;SHT30;59417;44.788;10.334;2022-12-24T15:30:46;10.59;88.98
28175;SHT30;59417;44.788;10.334;2022-12-24T15:33:12;10.61;88.50
28175;SHT30;59417;44.788;10.334;2022-12-24T15:38:32;10.63;88.79
28175;SHT30;59417;44.788;10.334;2022-12-24T15:41:05;10.61;88.81
28175;SHT30;59417;44.788;10.334;2022-12-24T15:43:38;10.63;88.76
28175;SHT30;59417;44.788;10.334;2022-12-24T15:47:51;10.63;88.96
28175;SHT30;59417;44.788;10.334;2022-12-24T15:50:43;10.60;88.78
28175;SHT30;59417;44.788;10.334;2022-12-24T15:53:20;10.61;88.84
28175;SHT30;59417;44.788;10.334;2022-12-24T15:56:46;10.61;88.84
28175;SHT30;59417;44.788;10.334;2022-12-24T15:59:54;10.57;88.60
28175;SHT30;59417;44.788;10.334;2022-12-24T16:02:43;10.59;88.93
28175;SHT30;59417;44.788;10.334;2022-12-24T16:05:37;10.65;88.64
28175;SHT30;59417;44.788;10.334;2022-12-24T16:10:44;10.61;88.83
28175;SHT30;59417;44.788;10.334;2022-12-24T16:13:21;10.63;88.88
28175;SHT30;59417;44.788;10.334;2022-12-24T16:15:53;10.59;88.66
28175;SHT30;59417;44.788;10.334;2022-12-24T16:18:26;10.63;88.82
28175;SHT30;59417;44.788;10.334;2022-12-24T16:20:58;10.63;88.95
28175;SHT30;59417;44.788;10.334;2022-12-24T16:23:37;10.60;88.84
28175;SHT30;59417;44.788;10.334;2022-12-24T16:26:04;10.61;88.92
28175;SHT30;59417;44.788;10.334;2022-12-24T16:29:14;10.64;88.77
28175;SHT30;59417;44.788;10.334;2022-12-24T16:31:48;10.63;88.72
28175;SHT30;59417;44.788;10.334;2022-12-24T16:34:15;10.65;88.82
28175;SHT30;59417;44.788;10.334;2022-12-24T16:36:43;10.65;89.13
28175;SHT30;59417;44.788;10.334;2022-12-24T16:39:13;10.60;89.19
28175;SHT30;59417;44.788;10.334;2022-12-24T16:45:39;10.63;89.21
28175;SHT30;59417;44.788;10.334;2022-12-24T16:48:10;10.61;89.03
28175;SHT30;59417;44.788;10.334;2022-12-24T16:50:40;10.65;89.09
28175;SHT30;59417;44.788;10.334;2022-12-24T16:53:35;10.67;89.19
28175;SHT30;59417;44.788;10.334;2022-12-24T16:56:06;10.59;89.07
28175;SHT30;59417;44.788;10.334;2022-12-24T16:58:34;10.56;89.37
28175;SHT30;59417;44.788;10.334;2022-12-24T17:01:08;10.65;89.26
28175;SHT30;59417;44.788;10.334;2022-12-24T17:03:40;10.60;89.21
28175;SHT30;59417;44.788;10.334;2022-12-24T17:06:15;10.56;89.46
28175;SHT30;59417;44.788;10.334;2022-12-24T17:08:50;10.59;89.67
28175;SHT30;59417;44.788;10.334;2022-12-24T17:11:23;10.57;89.29
28175;SHT30;59417;44.788;10.334;2022-12-24T17:13:49;10.63;89.14
28175;SHT30;59417;44.788;10.334;2022-12-24T17:16:18;10.64;89.24
28175;SHT30;59417;44.788;10.334;2022-12-24T17:18:47;10.70;88.91
28175;SHT30;59417;44.788;10.334;2022-12-24T17:21:16;10.70;88.94
28175;SHT30;59417;44.788;10.334;2022-12-24T17:23:43;10.57;89.47
28175;SHT30;59417;44.788;10.334;2022-12-24T17:26:16;10.61;89.39
28175;SHT30;59417;44.788;10.334;2022-12-24T17:28:55;10.57;89.54
28175;SHT30;59417;44.788;10.334;2022-12-24T17:31:31;10.64;89.31
28175;SHT30;59417;44.788;10.334;2022-12-24T17:33:58;10.57;89.63
28175;SHT30;59417;44.788;10.334;2022-12-24T17:36:37;10.59;89.25
28175;SHT30;59417;44.788;10.334;2022-12-24T17:39:33;10.67;89.09
28175;SHT30;59417;44.788;10.334;2022-12-24T17:42:02;10.60;89.33
28175;SHT30;59417;44.788;10.334;2022-12-24T17:48:17;10.52;89.75
28175;SHT30;59417;44.788;10.334;2022-12-24T17:50:47;10.56;89.49
28175;SHT30;59417;44.788;10.334;2022-12-24T17:53:17;10.56;89.49
28175;SHT30;59417;44.788;10.334;2022-12-24T17:55:43;10.59;89.57
28175;SHT30;59417;44.788;10.334;2022-12-24T17:58:19;10.64;89.19
28175;SHT30;59417;44.788;10.334;2022-12-24T18:00:44;10.60;88.98
28175;SHT30;59417;44.788;10.334;2022-12-24T18:04:02;10.59;89.20
28175;SHT30;59417;44.788;10.334;2022-12-24T18:06:14;10.59;89.35
28175;SHT30;59417;44.788;10.334;2022-12-24T18:08:42;10.59;89.27
28175;SHT30;59417;44.788;10.334;2022-12-24T18:14:11;10.59;89.47
28175;SHT30;59417;44.788;10.334;2022-12-24T18:16:39;10.57;89.53
28175;SHT30;59417;44.788;10.334;2022-12-24T18:19:07;10.57;89.64
28175;SHT30;59417;44.788;10.334;2022-12-24T18:21:41;10.59;89.57
28175;SHT30;59417;44.788;10.334;2022-12-24T18:24:11;10.63;89.63
28175;SHT30;59417;44.788;10.334;2022-12-24T18:26:38;10.60;89.67